Time,TemperatureF,DewpointF,PressureIn,WindDirection,WindDirectionDegrees,WindSpeedMPH,WindSpeedGustMPH,Humidity,HourlyPrecipIn,Conditions,Clouds,dailyrainin,SolarRadiationWatts/m^2,SoftwareType,DateUTC
2013-10-12 00:03:00,78.0,68.0,-100.00,SSE,157,10.0,18.0,72,0.00,,,0.00,0.000000,,2013-10-12 05:03:00,
2013-10-12 00:43:00,77.0,69.0,-100.00,SSE,159,10.0,17.0,76,0.00,,,0.00,0.000000,,2013-10-12 05:43:00,
2013-10-12 00:52:00,77.0,69.0,-100.00,SSE,159,10.0,17.0,76,0.00,,,0.00,0.000000,,2013-10-12 05:52:00,
2013-10-12 01:02:00,77.0,69.0,-100.00,SSE,159,10.0,17.0,76,0.00,,,0.00,0.000000,,2013-10-12 06:02:00,
2013-10-12 01:42:00,76.0,69.0,-100.00,SSE,161,9.0,14.0,80,0.00,,,0.00,0.000000,,2013-10-12 06:42:00,
2013-10-12 01:52:00,76.0,69.0,-100.00,SSE,161,9.0,14.0,80,0.00,,,0.00,0.000000,,2013-10-12 06:52:00,
2013-10-12 02:02:00,76.0,69.0,-100.00,SSE,161,9.0,14.0,80,0.00,,,0.00,0.000000,,2013-10-12 07:02:00,
2013-10-12 02:42:00,76.0,71.0,-100.00,SSE,163,10.0,15.0,84,0.00,,,0.00,0.000000,,2013-10-12 07:42:00,
2013-10-12 02:52:00,76.0,71.0,-100.00,SSE,163,10.0,15.0,84,0.00,,,0.00,0.000000,,2013-10-12 07:52:00,
2013-10-12 03:02:00,76.0,71.0,-100.00,SSE,163,10.0,15.0,84,0.00,,,0.00,0.000000,,2013-10-12 08:02:00,
2013-10-12 03:43:00,76.0,70.0,-100.00,South,169,9.0,16.0,83,0.00,,,0.00,0.000000,,2013-10-12 08:43:00,
2013-10-12 03:52:00,76.0,70.0,-100.00,South,169,9.0,16.0,83,0.00,,,0.00,0.000000,,2013-10-12 08:52:00,
2013-10-12 04:02:00,76.0,70.0,-100.00,South,169,9.0,16.0,83,0.00,,,0.00,0.000000,,2013-10-12 09:02:00,
2013-10-12 04:43:00,77.0,71.0,-100.00,South,179,8.0,17.0,82,0.00,,,0.00,0.000000,,2013-10-12 09:43:00,
2013-10-12 04:54:00,77.0,71.0,-100.00,South,179,8.0,17.0,82,0.00,,,0.00,0.000000,,2013-10-12 09:54:00,
2013-10-12 05:03:00,77.0,71.0,-100.00,South,179,8.0,17.0,82,0.00,,,0.00,0.000000,,2013-10-12 10:03:00,
2013-10-12 05:42:00,76.0,70.0,-100.00,South,172,7.0,15.0,83,0.00,,,0.00,0.000000,,2013-10-12 10:42:00,
2013-10-12 05:52:00,76.0,70.0,-100.00,South,172,7.0,15.0,83,0.00,,,0.00,0.000000,,2013-10-12 10:52:00,
2013-10-12 06:02:00,76.0,70.0,-100.00,South,172,7.0,15.0,83,0.00,,,0.00,0.000000,,2013-10-12 11:02:00,
2013-10-12 06:42:00,75.0,70.0,-100.00,South,182,5.0,15.0,85,0.00,,,0.00,0.000000,,2013-10-12 11:42:00,
2013-10-12 06:52:00,75.0,70.0,-100.00,South,182,5.0,15.0,85,0.00,,,0.00,0.000000,,2013-10-12 11:52:00,
2013-10-12 07:01:00,75.0,70.0,-100.00,South,182,5.0,15.0,85,0.00,,,0.00,0.000000,,2013-10-12 12:01:00,
2013-10-12 07:42:00,74.0,70.0,-100.00,South,171,5.0,10.0,88,0.00,,,0.00,0.000000,,2013-10-12 12:42:00,
2013-10-12 07:52:00,74.0,70.0,-100.00,South,171,5.0,10.0,88,0.00,,,0.00,0.000000,,2013-10-12 12:52:00,
2013-10-12 08:02:00,74.0,70.0,-100.00,South,171,5.0,10.0,88,0.00,,,0.00,0.000000,,2013-10-12 13:02:00,
2013-10-12 08:42:00,74.0,71.0,-100.00,South,174,4.0,6.0,90,0.00,,,0.00,8.000000,,2013-10-12 13:42:00,
2013-10-12 08:52:00,74.0,71.0,-100.00,South,174,4.0,6.0,90,0.00,,,0.00,8.000000,,2013-10-12 13:52:00,
2013-10-12 09:02:00,74.0,71.0,-100.00,South,174,4.0,6.0,90,0.00,,,0.00,8.000000,,2013-10-12 14:02:00,
2013-10-12 09:42:00,77.0,73.0,-100.00,South,186,5.0,9.0,87,0.00,,,0.00,94.000000,,2013-10-12 14:42:00,
2013-10-12 09:52:00,77.0,73.0,-100.00,South,186,5.0,9.0,87,0.00,,,0.00,94.000000,,2013-10-12 14:52:00,
2013-10-12 10:02:00,77.0,73.0,-100.00,South,186,5.0,9.0,87,0.00,,,0.00,94.000000,,2013-10-12 15:02:00,
2013-10-12 10:44:00,81.0,74.0,-100.00,SSW,197,8.0,14.0,79,0.00,,,0.00,231.000000,,2013-10-12 15:44:00,
2013-10-12 10:54:00,81.0,74.0,-100.00,SSW,197,8.0,14.0,79,0.00,,,0.00,231.000000,,2013-10-12 15:54:00,
2013-10-12 11:03:00,81.0,74.0,-100.00,SSW,197,8.0,14.0,79,0.00,,,0.00,231.000000,,2013-10-12 16:03:00,
2013-10-12 11:43:00,82.0,73.0,-100.00,SSW,196,8.0,14.0,74,0.00,,,0.00,484.000000,,2013-10-12 16:43:00,
2013-10-12 11:53:00,82.0,73.0,-100.00,SSW,196,8.0,14.0,74,0.00,,,0.00,484.000000,,2013-10-12 16:53:00,
2013-10-12 12:03:00,82.0,73.0,-100.00,SSW,196,8.0,14.0,74,0.00,,,0.00,484.000000,,2013-10-12 17:03:00,
2013-10-12 12:42:00,83.0,72.0,-100.00,SW,223,6.0,11.0,70,0.00,,,0.00,453.000000,,2013-10-12 17:42:00,
2013-10-12 12:53:00,83.0,72.0,-100.00,SW,223,6.0,11.0,70,0.00,,,0.00,453.000000,,2013-10-12 17:53:00,
2013-10-12 13:02:00,83.0,72.0,-100.00,SW,223,6.0,11.0,70,0.00,,,0.00,453.000000,,2013-10-12 18:02:00,
2013-10-12 13:42:00,86.0,72.0,-100.00,SW,217,6.0,12.0,64,0.00,,,0.00,690.000000,,2013-10-12 18:42:00,
2013-10-12 13:52:00,86.0,72.0,-100.00,SW,217,6.0,12.0,64,0.00,,,0.00,690.000000,,2013-10-12 18:52:00,
2013-10-12 14:01:00,86.0,72.0,-100.00,SW,217,6.0,12.0,64,0.00,,,0.00,690.000000,,2013-10-12 19:01:00,
2013-10-12 14:42:00,90.0,74.0,-100.00,SW,232,4.0,9.0,60,0.00,,,0.00,801.000000,,2013-10-12 19:42:00,
2013-10-12 14:52:00,90.0,74.0,-100.00,SW,232,4.0,9.0,60,0.00,,,0.00,801.000000,,2013-10-12 19:52:00,
2013-10-12 15:03:00,90.0,74.0,-100.00,SW,232,4.0,9.0,60,0.00,,,0.00,801.000000,,2013-10-12 20:03:00,
2013-10-12 15:43:00,91.0,73.0,-100.00,NNW,339,4.0,8.0,55,0.00,,,0.00,568.000000,,2013-10-12 20:43:00,
2013-10-12 15:52:00,91.0,73.0,-100.00,NNW,339,4.0,8.0,55,0.00,,,0.00,568.000000,,2013-10-12 20:52:00,
2013-10-12 16:02:00,91.0,73.0,-100.00,NNW,339,4.0,8.0,55,0.00,,,0.00,568.000000,,2013-10-12 21:02:00,
2013-10-12 16:43:00,83.0,66.0,-100.00,SE,138,8.0,19.0,57,0.00,,,0.00,601.000000,,2013-10-12 21:43:00,
2013-10-12 16:54:00,83.0,66.0,-100.00,SE,138,8.0,19.0,57,0.00,,,0.00,601.000000,,2013-10-12 21:54:00,
2013-10-12 17:04:00,83.0,66.0,-100.00,SE,138,8.0,19.0,57,0.00,,,0.00,601.000000,,2013-10-12 22:04:00,
2013-10-12 17:43:00,81.0,66.0,-100.00,SE,145,9.0,19.0,60,0.00,,,0.00,407.000000,,2013-10-12 22:43:00,
2013-10-12 17:54:00,81.0,66.0,-100.00,SE,145,9.0,19.0,60,0.00,,,0.00,407.000000,,2013-10-12 22:54:00,
2013-10-12 18:02:00,81.0,66.0,-100.00,SE,145,9.0,19.0,60,0.00,,,0.00,407.000000,,2013-10-12 23:02:00,
2013-10-12 18:42:00,82.0,66.0,-100.00,SE,138,4.0,16.0,58,0.00,,,0.00,244.000000,,2013-10-12 23:42:00,
2013-10-12 18:52:00,82.0,66.0,-100.00,SE,138,4.0,16.0,58,0.00,,,0.00,244.000000,,2013-10-12 23:52:00,
2013-10-12 19:01:00,82.0,66.0,-100.00,SE,138,4.0,16.0,58,0.00,,,0.00,244.000000,,2013-10-13 00:01:00,
2013-10-12 19:42:00,77.0,66.0,-100.00,NNE,12,2.0,10.0,68,0.00,,,0.00,38.000000,,2013-10-13 00:42:00,
2013-10-12 19:52:00,77.0,66.0,-100.00,NNE,12,2.0,10.0,68,0.00,,,0.00,38.000000,,2013-10-13 00:52:00,
2013-10-12 20:01:00,77.0,66.0,-100.00,NNE,12,2.0,10.0,68,0.00,,,0.00,38.000000,,2013-10-13 01:01:00,
2013-10-12 20:42:00,75.0,68.0,-100.00,SSE,152,5.0,7.0,78,0.00,,,0.00,0.000000,,2013-10-13 01:42:00,
2013-10-12 20:52:00,75.0,68.0,-100.00,SSE,152,5.0,7.0,78,0.00,,,0.00,0.000000,,2013-10-13 01:52:00,
2013-10-12 21:02:00,75.0,68.0,-100.00,SSE,152,5.0,7.0,78,0.00,,,0.00,0.000000,,2013-10-13 02:02:00,
2013-10-12 21:43:00,74.0,66.0,-100.00,ESE,109,4.0,9.0,76,0.00,,,0.00,0.000000,,2013-10-13 02:43:00,
2013-10-12 21:52:00,74.0,66.0,-100.00,ESE,109,4.0,9.0,76,0.00,,,0.00,0.000000,,2013-10-13 02:52:00,
2013-10-12 22:02:00,74.0,66.0,-100.00,ESE,109,4.0,9.0,76,0.00,,,0.00,0.000000,,2013-10-13 03:02:00,
2013-10-12 22:45:00,72.0,65.0,-100.00,SSE,150,5.0,11.0,80,0.00,,,0.00,0.000000,,2013-10-13 03:45:00,
2013-10-12 22:54:00,72.0,65.0,-100.00,SSE,150,5.0,11.0,80,0.00,,,0.00,0.000000,,2013-10-13 03:54:00,
2013-10-12 23:02:00,-999.0,-99.9,-100.00,SSE,150,5.0,11.0,-999,-99.99,,,-99.99,0.000000,,2013-10-13 04:02:00,
2013-10-12 23:43:00,70.0,64.0,-100.00,SSE,161,4.0,8.0,82,0.00,,,0.00,0.000000,,2013-10-13 04:43:00,
2013-10-12 23:54:00,70.0,64.0,-100.00,SSE,161,4.0,8.0,82,0.00,,,0.00,0.000000,,2013-10-13 04:54:00,